Latest Weather Observations for Hillarys Point Boat Harbour

IDW60901

Issued at 9:51 pm WST Friday 15 November 2019 (issued every 10 minutes, with the page automatically refreshed every 10 minutes)

About weather observations | Map of Perth area stations | Latest observations for Perth area | Other Formats
Station Details ID: 009265 Name: HILLARYS BOAT HARBOUR NTC AWS Lat: -31.83 Lon: 115.74 Height: 0.0 m
Data from the previous 72 hours. | See also: Recent months for locations in Western Australia
Date/Time
WST
Temp
°C
App
Temp
°C
Dew
Point
°C
Rel
Hum
%
Delta-T
°C
Wind Press
QNH
hPa
Press
MSL
hPa
Rain since
9am
mm
Dir  Spd
km/h
Gust
km/h
Spd
kts
Gust
kts
15/09:30pm 22.2 - - - - SSE 6 11 3 6 1012.0 1012.0 -
15/09:00pm 22.1 - - - - S 2 7 1 4 1011.9 1011.9 -
15/08:30pm 22.4 - - - - S 4 11 2 6 1011.9 1011.9 -
15/08:00pm 22.4 - - - - SSW 2 6 1 3 1011.8 1011.8 -
15/07:30pm 22.6 - - - - S 4 9 2 5 1011.7 1011.7 -
15/07:00pm 23.5 - - - - S 7 15 4 8 1011.6 1011.6 -
15/06:30pm 23.8 - - - - SW 6 13 3 7 1011.2 1011.2 -
15/06:00pm 24.5 - - - - S 4 11 2 6 1010.9 1010.9 -
15/05:30pm 24.7 - - - - S 9 17 5 9 1010.5 1010.5 -
15/05:00pm 24.9 - - - - S 6 15 3 8 1010.3 1010.3 -
15/04:30pm 24.9 - - - - S 6 19 3 10 1010.4 1010.4 -
15/04:00pm 24.9 - - - - S 9 19 5 10 1010.4 1010.4 -
15/03:30pm 24.2 - - - - SSE 9 13 5 7 1010.7 1010.7 -
15/03:00pm 24.8 - - - - S 6 11 3 6 1011.1 1011.1 -
15/02:30pm 24.4 - - - - S 7 13 4 7 1011.4 1011.4 -
15/02:00pm 24.8 - - - - SSE 7 15 4 8 1011.5 1011.5 -
15/01:30pm 27.1 - - - - SSW 11 22 6 12 1011.6 1011.6 -
15/01:00pm 26.7 - - - - SW 17 26 9 14 1011.9 1011.9 -
15/12:49pm 28.1 - - - - NNW 9 24 5 13 1011.8 1011.8 -
15/12:30pm 34.4 - - - - ENE 11 28 6 15 1011.9 1011.9 -
15/12:00pm 33.8 - - - - ENE 9 19 5 10 1012.3 1012.3 -
15/11:30am 32.8 - - - - ENE 15 28 8 15 1012.2 1012.2 -
15/11:00am 31.3 - - - - ENE 19 35 10 19 1011.7 1011.7 -
15/10:30am 30.1 - - - - E 13 28 7 15 1012.3 1012.3 -
15/10:00am 29.2 - - - - E 9 20 5 11 1013.1 1013.1 -
15/09:30am 28.5 - - - - E 9 26 5 14 1013.3 1013.3 -
15/09:00am 27.5 - - - - E 7 19 4 10 1014.0 1014.0 -
15/08:30am 26.2 - - - - E 9 30 5 16 1013.7 1013.7 -
15/08:00am 25.1 - - - - E 7 22 4 12 1014.0 1014.0 -
15/07:30am 24.2 - - - - E 9 22 5 12 1014.1 1014.1 -
15/07:00am 22.9 - - - - E 11 24 6 13 1013.9 1013.9 -
15/06:30am 22.5 - - - - E 9 22 5 12 1014.1 1014.1 -
15/06:00am 22.2 - - - - E 7 28 4 15 1013.8 1013.8 -
15/05:30am 22.2 - - - - E 15 30 8 16 1013.0 1013.0 -
15/05:00am 22.5 - - - - E 11 28 6 15 1013.0 1013.0 -
15/04:30am 23.1 - - - - E 20 48 11 26 1012.9 1012.9 -
15/04:00am 23.0 - - - - E 15 28 8 15 1013.0 1013.0 -
15/03:30am 23.5 - - - - E 19 37 10 20 1012.9 1012.9 -
15/03:00am 23.9 - - - - E 19 30 10 16 1012.7 1012.7 -
15/02:30am 24.1 - - - - E 20 39 11 21 1012.6 1012.6 -
15/02:00am 24.4 - - - - E 22 39 12 21 1012.8 1012.8 -
15/01:30am 25.0 - - - - E 19 39 10 21 1012.7 1012.7 -
15/01:00am 25.8 - - - - E 17 39 9 21 1012.5 1012.5 -
15/12:30am 26.6 - - - - E 17 37 9 20 1012.6 1012.6 -
15/12:00am 27.6 - - - - E 11 28 6 15 1012.5 1012.5 -
 
Date/Time
WST
Temp
°C
App
Temp
°C
Dew
Point
°C
Rel
Hum
%
Delta-T
°C
Wind Press
QNH
hPa
Press
MSL
hPa
Rain since
9am
mm
Dir  Spd
km/h
Gust
km/h
Spd
kts
Gust
kts
14/11:30pm 27.1 - - - - ESE 6 17 3 9 1012.6 1012.6 -
14/11:29pm 26.9 - - - - SE 6 17 3 9 1012.5 1012.5 -
14/11:00pm 21.8 - - - - S 4 7 2 4 1012.7 1012.7 -
14/10:30pm 21.7 - - - - S 6 17 3 9 1012.7 1012.7 -
14/10:00pm 22.1 - - - - S 6 15 3 8 1012.7 1012.7 -
14/09:30pm 22.2 - - - - S 4 11 2 6 1012.6 1012.6 -
14/09:00pm 22.4 - - - - S 6 11 3 6 1012.6 1012.6 -
14/08:30pm 22.4 - - - - S 7 13 4 7 1012.4 1012.4 -
14/08:00pm 22.5 - - - - S 9 19 5 10 1012.2 1012.2 -
14/07:30pm 22.6 - - - - S 6 19 3 10 1011.9 1011.9 -
14/07:00pm 22.7 - - - - S 6 15 3 8 1011.7 1011.7 -
14/06:30pm 23.3 - - - - S 6 19 3 10 1011.5 1011.5 -
14/06:00pm 23.5 - - - - SSW 7 19 4 10 1011.4 1011.4 -
14/05:30pm 23.9 - - - - S 6 17 3 9 1011.4 1011.4 -
14/05:00pm 24.6 - - - - SSW 6 15 3 8 1011.4 1011.4 -
14/04:30pm 24.9 - - - - S 4 19 2 10 1011.5 1011.5 -
14/04:00pm 24.6 - - - - SSW 6 15 3 8 1011.6 1011.6 -
14/03:30pm 25.3 - - - - S 6 11 3 6 1011.9 1011.9 -
14/03:00pm 24.7 - - - - SSW 7 17 4 9 1012.3 1012.3 -
14/02:30pm 24.7 - - - - S 9 19 5 10 1012.8 1012.8 -
14/02:00pm 24.5 - - - - S 9 19 5 10 1013.3 1013.3 -
14/01:30pm 23.8 - - - - SSW 7 19 4 10 1013.7 1013.7 -
14/01:00pm 24.8 - - - - S 6 17 3 9 1013.8 1013.8 -
14/12:30pm 25.2 - - - - S 7 17 4 9 1013.9 1013.9 -
14/12:00pm 24.9 - - - - SSE 9 13 5 7 1014.0 1014.0 -
14/11:30am 25.8 - - - - SSE 6 11 3 6 1014.3 1014.3 -
14/11:00am 24.8 - - - - SSE 9 11 5 6 1014.6 1014.6 -
14/10:30am 26.1 - - - - S 6 11 3 6 1014.8 1014.8 -
14/10:00am 25.0 - - - - SSE 6 9 3 5 1015.2 1015.2 -
14/09:30am 25.6 - - - - SSW 9 17 5 9 1015.3 1015.3 -
14/09:00am 27.6 - - - - WSW 4 6 2 3 1015.5 1015.5 -
14/08:30am 29.6 - - - - ENE 4 9 2 5 1015.6 1015.6 -
14/08:00am 27.1 - - - - SSE 2 7 1 4 1015.7 1015.7 -
14/07:30am 26.8 - - - - SE 2 9 1 5 1016.0 1016.0 -
14/07:00am 24.6 - - - - SSE 2 4 1 2 1016.0 1016.0 -
14/06:30am 22.3 - - - - SSE 4 6 2 3 1015.8 1015.8 -
14/06:00am 21.9 - - - - CALM 0 2 0 1 1015.5 1015.5 -
14/05:30am 21.0 - - - - SSW 2 6 1 3 1015.2 1015.2 -
14/05:00am 21.3 - - - - CALM 0 2 0 1 1015.0 1015.0 -
14/04:30am 21.4 - - - - SE 2 6 1 3 1014.6 1014.6 -
14/04:00am 21.4 - - - - SE 2 2 1 1 1014.7 1014.7 -
14/03:30am 21.1 - - - - S 4 6 2 3 1014.6 1014.6 -
14/03:00am 21.9 - - - - CALM 0 2 0 1 1014.6 1014.6 -
14/02:30am 21.7 - - - - CALM 0 2 0 1 1014.5 1014.5 -
14/02:00am 21.8 - - - - WSW 2 2 1 1 1014.6 1014.6 -
14/01:30am 22.9 - - - - SE 2 6 1 3 1014.6 1014.6 -
14/01:00am 22.6 - - - - SSE 4 7 2 4 1014.9 1014.9 -
14/12:30am 22.2 - - - - SSE 2 6 1 3 1015.4 1015.4 -
14/12:00am 22.9 - - - - SSE 2 7 1 4 1015.7 1015.7 -
 
Date/Time
WST
Temp
°C
App
Temp
°C
Dew
Point
°C
Rel
Hum
%
Delta-T
°C
Wind Press
QNH
hPa
Press
MSL
hPa
Rain since
9am
mm
Dir  Spd
km/h
Gust
km/h
Spd
kts
Gust
kts
13/11:30pm 22.6 - - - - S 2 6 1 3 1016.0 1016.0 -
13/11:00pm 24.4 - - - - SSE 4 11 2 6 1016.3 1016.3 -
13/10:30pm 24.1 - - - - S 4 7 2 4 1016.5 1016.5 -
13/10:00pm 23.7 - - - - S 6 9 3 5 1016.6 1016.6 -
13/09:30pm 22.3 - - - - S 4 9 2 5 1016.7 1016.7 -
13/09:00pm 22.4 - - - - S 4 13 2 7 1016.6 1016.6 -
13/08:30pm 22.6 - - - - S 4 11 2 6 1016.4 1016.4 -
13/08:00pm 23.1 - - - - S 7 15 4 8 1016.3 1016.3 -
13/07:30pm 23.1 - - - - S 6 15 3 8 1016.1 1016.1 -
13/07:00pm 23.3 - - - - S 7 17 4 9 1015.9 1015.9 -
13/06:30pm 23.6 - - - - S 6 15 3 8 1015.8 1015.8 -
13/06:00pm 24.1 - - - - S 7 15 4 8 1015.8 1015.8 -
13/05:30pm 23.9 - - - - S 7 15 4 8 1015.7 1015.7 -
13/05:00pm 24.0 - - - - S 9 17 5 9 1015.8 1015.8 -
13/04:30pm 24.1 - - - - S 7 17 4 9 1015.8 1015.8 -
13/04:00pm 24.6 - - - - S 7 17 4 9 1016.1 1016.1 -
13/03:30pm 24.8 - - - - S 6 17 3 9 1016.3 1016.3 -
13/03:00pm 24.2 - - - - SSE 6 17 3 9 1016.5 1016.5 -
13/02:30pm 24.6 - - - - SSE 7 15 4 8 1016.8 1016.8 -
13/02:00pm 24.7 - - - - S 7 17 4 9 1017.2 1017.2 -
13/01:30pm 23.8 - - - - SSE 7 13 4 7 1017.6 1017.6 -
13/01:00pm 24.8 - - - - WNW 6 9 3 5 1017.9 1017.9 -
13/12:30pm 26.2 - - - - SW 7 15 4 8 1018.1 1018.1 -
13/12:29pm 26.6 - - - - SW 7 15 4 8 1018.1 1018.1 -
13/12:00pm 31.6 - - - - ENE 9 20 5 11 1018.3 1018.3 -
13/11:30am 30.4 - - - - NE 11 22 6 12 1018.7 1018.7 -
13/11:00am 29.8 - - - - ENE 13 22 7 12 1019.0 1019.0 -
13/10:30am 29.3 - - - - NE 11 24 6 13 1019.0 1019.0 -
13/10:00am 27.8 - - - - ENE 15 28 8 15 1019.3 1019.3 -
13/09:30am 26.1 - - - - ENE 17 32 9 17 1019.5 1019.5 -
13/09:00am 24.9 - - - - ENE 22 37 12 20 1019.6 1019.6 -
13/08:30am 23.7 - - - - ENE 19 33 10 18 1019.9 1019.9 -
13/08:00am 22.7 - - - - ENE 15 28 8 15 1020.2 1020.2 -
13/07:30am 21.2 - - - - E 7 17 4 9 1020.2 1020.2 -
13/07:00am 19.6 - - - - ENE 13 24 7 13 1020.1 1020.1 -
13/06:30am 18.8 - - - - E 13 24 7 13 1019.9 1019.9 -
13/06:00am 18.4 - - - - E 9 20 5 11 1019.9 1019.9 -
13/05:30am 18.9 - - - - E 7 19 4 10 1019.6 1019.6 -
13/05:00am 19.5 - - - - ESE 4 13 2 7 1019.5 1019.5 -
13/04:30am 20.3 - - - - ENE 20 33 11 18 1018.9 1018.9 -
13/04:00am 20.8 - - - - ENE 20 37 11 20 1018.7 1018.7 -
13/03:30am 21.4 - - - - E 20 32 11 17 1018.8 1018.8 -
13/03:00am 22.0 - - - - E 20 41 11 22 1018.9 1018.9 -
13/02:30am 22.6 - - - - E 19 32 10 17 1019.2 1019.2 -
13/02:00am 23.2 - - - - E 20 37 11 20 1019.1 1019.1 -
13/01:30am 23.3 - - - - E 15 28 8 15 1019.2 1019.2 -
13/01:00am 23.7 - - - - E 15 26 8 14 1019.2 1019.2 -
13/12:30am 24.1 - - - - E 15 28 8 15 1019.3 1019.3 -
13/12:00am 24.6 - - - - E 15 30 8 16 1019.8 1019.8 -
 
Date/Time
WST
Temp
°C
App
Temp
°C
Dew
Point
°C
Rel
Hum
%
Delta-T
°C
Wind Press
QNH
hPa
Press
MSL
hPa
Rain since
9am
mm
Dir  Spd
km/h
Gust
km/h
Spd
kts
Gust
kts
12/11:30pm 25.0 - - - - E 15 28 8 15 1019.7 1019.7 -
12/11:00pm 25.3 - - - - E 13 22 7 12 1019.9 1019.9 -
12/10:30pm 25.4 - - - - E 9 19 5 10 1019.9 1019.9 -
12/10:00pm 25.9 - - - - E 11 24 6 13 1019.9 1019.9 -

Latest Capital City Observations: Canberra | Sydney | Melbourne | Brisbane | Adelaide | Perth | Hobart | Darwin

Other formats

Comma delimited format used in spreadsheet applications
http://www.bom.gov.au/fwo/IDW60901/IDW60901.95605.axf

JavaScript Object Notation format (JSON) in row-major order
http://www.bom.gov.au/fwo/IDW60901/IDW60901.95605.json

Data quality

Most of these data are generated automatically and are frequently updated. Quality checks on data are not normally performed. It is possible for incorrect values to appear. Refer to information at About Latest Weather Observations and please check the disclaimer before using these data.